sensor_id;sensor_type;location;lat;lon;timestamp;P1;durP1;ratioP1;P2;durP2;ratioP2
18308;SDS011;9280;50.276;18.650;2022-10-16T00:02:18;56.23;;;15.77;;
18308;SDS011;9280;50.276;18.650;2022-10-16T00:05:04;41.60;;;13.73;;
18308;SDS011;9280;50.276;18.650;2022-10-16T00:07:50;42.27;;;14.57;;
18308;SDS011;9280;50.276;18.650;2022-10-16T00:10:37;38.87;;;15.70;;
18308;SDS011;9280;50.276;18.650;2022-10-16T00:13:24;35.50;;;14.43;;
18308;SDS011;9280;50.276;18.650;2022-10-16T00:16:11;38.47;;;15.83;;
18308;SDS011;9280;50.276;18.650;2022-10-16T00:18:58;59.47;;;17.00;;
18308;SDS011;9280;50.276;18.650;2022-10-16T00:21:43;48.20;;;17.23;;
18308;SDS011;9280;50.276;18.650;2022-10-16T00:24:29;33.73;;;13.00;;
18308;SDS011;9280;50.276;18.650;2022-10-16T00:27:15;49.63;;;14.03;;
18308;SDS011;9280;50.276;18.650;2022-10-16T00:30:04;54.33;;;16.67;;
18308;SDS011;9280;50.276;18.650;2022-10-16T00:32:52;64.60;;;19.97;;
18308;SDS011;9280;50.276;18.650;2022-10-16T00:35:38;61.93;;;17.83;;
18308;SDS011;9280;50.276;18.650;2022-10-16T00:38:24;40.47;;;12.70;;
18308;SDS011;9280;50.276;18.650;2022-10-16T00:41:12;35.20;;;14.30;;
18308;SDS011;9280;50.276;18.650;2022-10-16T00:44:00;61.87;;;18.20;;
18308;SDS011;9280;50.276;18.650;2022-10-16T00:46:49;42.27;;;14.53;;
18308;SDS011;9280;50.276;18.650;2022-10-16T00:49:36;55.17;;;16.53;;
18308;SDS011;9280;50.276;18.650;2022-10-16T00:52:22;38.70;;;15.50;;
18308;SDS011;9280;50.276;18.650;2022-10-16T00:55:08;39.13;;;15.20;;
18308;SDS011;9280;50.276;18.650;2022-10-16T00:57:55;56.70;;;18.80;;
18308;SDS011;9280;50.276;18.650;2022-10-16T01:00:42;49.47;;;15.67;;
18308;SDS011;9280;50.276;18.650;2022-10-16T01:03:31;66.00;;;21.70;;
18308;SDS011;9280;50.276;18.650;2022-10-16T01:06:19;40.80;;;15.93;;
18308;SDS011;9280;50.276;18.650;2022-10-16T01:09:11;36.20;;;14.40;;
18308;SDS011;9280;50.276;18.650;2022-10-16T01:12:01;42.20;;;15.03;;
18308;SDS011;9280;50.276;18.650;2022-10-16T01:14:55;36.73;;;14.17;;
18308;SDS011;9280;50.276;18.650;2022-10-16T01:17:45;53.17;;;15.47;;
18308;SDS011;9280;50.276;18.650;2022-10-16T01:20:39;39.77;;;16.13;;
18308;SDS011;9280;50.276;18.650;2022-10-16T01:23:36;38.93;;;16.07;;
18308;SDS011;9280;50.276;18.650;2022-10-16T01:26:33;60.53;;;17.00;;
18308;SDS011;9280;50.276;18.650;2022-10-16T01:29:28;35.00;;;15.23;;
18308;SDS011;9280;50.276;18.650;2022-10-16T01:32:22;39.83;;;14.47;;
18308;SDS011;9280;50.276;18.650;2022-10-16T01:35:14;32.30;;;13.50;;
18308;SDS011;9280;50.276;18.650;2022-10-16T01:38:08;55.00;;;19.23;;
18308;SDS011;9280;50.276;18.650;2022-10-16T01:40:59;35.07;;;15.40;;
18308;SDS011;9280;50.276;18.650;2022-10-16T01:43:49;31.20;;;14.83;;
18308;SDS011;9280;50.276;18.650;2022-10-16T01:46:43;35.80;;;15.80;;
18308;SDS011;9280;50.276;18.650;2022-10-16T01:49:33;38.13;;;15.73;;
18308;SDS011;9280;50.276;18.650;2022-10-16T01:52:23;32.07;;;14.87;;
18308;SDS011;9280;50.276;18.650;2022-10-16T01:55:13;57.97;;;16.93;;
18308;SDS011;9280;50.276;18.650;2022-10-16T01:58:02;36.80;;;14.03;;
18308;SDS011;9280;50.276;18.650;2022-10-16T02:00:50;32.57;;;13.73;;
18308;SDS011;9280;50.276;18.650;2022-10-16T02:03:42;60.37;;;17.10;;
18308;SDS011;9280;50.276;18.650;2022-10-16T02:06:31;56.47;;;17.20;;
18308;SDS011;9280;50.276;18.650;2022-10-16T02:09:18;39.60;;;14.83;;
18308;SDS011;9280;50.276;18.650;2022-10-16T02:12:06;38.77;;;13.77;;
18308;SDS011;9280;50.276;18.650;2022-10-16T02:14:57;45.00;;;13.80;;
18308;SDS011;9280;50.276;18.650;2022-10-16T02:17:43;41.97;;;15.63;;
18308;SDS011;9280;50.276;18.650;2022-10-16T02:20:32;33.83;;;14.03;;
18308;SDS011;9280;50.276;18.650;2022-10-16T02:23:23;33.23;;;14.43;;
18308;SDS011;9280;50.276;18.650;2022-10-16T02:26:15;36.43;;;14.23;;
18308;SDS011;9280;50.276;18.650;2022-10-16T02:29:07;34.53;;;13.87;;
18308;SDS011;9280;50.276;18.650;2022-10-16T02:31:58;36.03;;;14.30;;
18308;SDS011;9280;50.276;18.650;2022-10-16T02:34:47;24.83;;;13.57;;
18308;SDS011;9280;50.276;18.650;2022-10-16T02:37:35;50.70;;;15.87;;
18308;SDS011;9280;50.276;18.650;2022-10-16T02:40:23;41.77;;;15.13;;
18308;SDS011;9280;50.276;18.650;2022-10-16T02:43:10;49.33;;;16.40;;
18308;SDS011;9280;50.276;18.650;2022-10-16T02:45:57;38.07;;;13.37;;
18308;SDS011;9280;50.276;18.650;2022-10-16T02:48:45;35.53;;;13.17;;
18308;SDS011;9280;50.276;18.650;2022-10-16T02:51:32;66.60;;;20.27;;
18308;SDS011;9280;50.276;18.650;2022-10-16T02:54:19;42.97;;;14.17;;
18308;SDS011;9280;50.276;18.650;2022-10-16T02:57:05;56.10;;;17.50;;
18308;SDS011;9280;50.276;18.650;2022-10-16T02:59:51;66.83;;;18.50;;
18308;SDS011;9280;50.276;18.650;2022-10-16T03:02:37;66.63;;;17.37;;
18308;SDS011;9280;50.276;18.650;2022-10-16T03:05:23;43.93;;;13.97;;
18308;SDS011;9280;50.276;18.650;2022-10-16T03:08:09;42.23;;;14.83;;
18308;SDS011;9280;50.276;18.650;2022-10-16T03:10:57;45.00;;;14.77;;
18308;SDS011;9280;50.276;18.650;2022-10-16T03:13:45;32.10;;;12.23;;
18308;SDS011;9280;50.276;18.650;2022-10-16T03:16:31;47.33;;;13.87;;
18308;SDS011;9280;50.276;18.650;2022-10-16T03:19:17;43.60;;;14.10;;
18308;SDS011;9280;50.276;18.650;2022-10-16T03:22:04;45.17;;;14.30;;
18308;SDS011;9280;50.276;18.650;2022-10-16T03:24:50;64.33;;;18.67;;
18308;SDS011;9280;50.276;18.650;2022-10-16T03:27:38;43.37;;;14.70;;
18308;SDS011;9280;50.276;18.650;2022-10-16T03:30:24;46.77;;;15.40;;
18308;SDS011;9280;50.276;18.650;2022-10-16T03:33:10;62.40;;;17.50;;
18308;SDS011;9280;50.276;18.650;2022-10-16T03:35:56;48.93;;;15.07;;
18308;SDS011;9280;50.276;18.650;2022-10-16T03:38:41;53.73;;;16.00;;
18308;SDS011;9280;50.276;18.650;2022-10-16T03:41:27;62.03;;;20.80;;
18308;SDS011;9280;50.276;18.650;2022-10-16T03:44:15;42.03;;;14.40;;
18308;SDS011;9280;50.276;18.650;2022-10-16T03:47:01;60.50;;;20.30;;
18308;SDS011;9280;50.276;18.650;2022-10-16T03:49:47;37.23;;;14.17;;
18308;SDS011;9280;50.276;18.650;2022-10-16T03:52:33;64.67;;;17.60;;
18308;SDS011;9280;50.276;18.650;2022-10-16T03:55:19;34.83;;;11.63;;
18308;SDS011;9280;50.276;18.650;2022-10-16T03:58:05;43.63;;;13.20;;
18308;SDS011;9280;50.276;18.650;2022-10-16T04:00:53;44.20;;;14.20;;
18308;SDS011;9280;50.276;18.650;2022-10-16T04:03:38;66.73;;;17.33;;
18308;SDS011;9280;50.276;18.650;2022-10-16T04:06:24;40.73;;;13.00;;
18308;SDS011;9280;50.276;18.650;2022-10-16T04:09:11;53.23;;;15.03;;
18308;SDS011;9280;50.276;18.650;2022-10-16T04:11:57;45.77;;;13.63;;
18308;SDS011;9280;50.276;18.650;2022-10-16T04:14:42;40.23;;;13.97;;
18308;SDS011;9280;50.276;18.650;2022-10-16T04:17:30;35.00;;;14.40;;
18308;SDS011;9280;50.276;18.650;2022-10-16T04:20:17;44.63;;;14.77;;
18308;SDS011;9280;50.276;18.650;2022-10-16T04:23:03;69.53;;;19.20;;
18308;SDS011;9280;50.276;18.650;2022-10-16T04:25:50;43.40;;;14.03;;
18308;SDS011;9280;50.276;18.650;2022-10-16T04:28:36;74.90;;;21.03;;
18308;SDS011;9280;50.276;18.650;2022-10-16T04:31:22;48.93;;;15.57;;
18308;SDS011;9280;50.276;18.650;2022-10-16T04:34:09;126.20;;;104.60;;
18308;SDS011;9280;50.276;18.650;2022-10-16T04:36:55;107.50;;;92.27;;
18308;SDS011;9280;50.276;18.650;2022-10-16T04:39:42;118.90;;;83.80;;
18308;SDS011;9280;50.276;18.650;2022-10-16T04:42:28;109.67;;;77.17;;
18308;SDS011;9280;50.276;18.650;2022-10-16T04:45:14;44.17;;;15.20;;
18308;SDS011;9280;50.276;18.650;2022-10-16T04:48:00;54.80;;;16.97;;
18308;SDS011;9280;50.276;18.650;2022-10-16T04:50:47;57.80;;;33.97;;
18308;SDS011;9280;50.276;18.650;2022-10-16T04:53:33;49.63;;;16.60;;
18308;SDS011;9280;50.276;18.650;2022-10-16T04:56:19;58.87;;;18.40;;
18308;SDS011;9280;50.276;18.650;2022-10-16T04:59:05;58.80;;;18.47;;
18308;SDS011;9280;50.276;18.650;2022-10-16T05:01:51;44.83;;;16.43;;
18308;SDS011;9280;50.276;18.650;2022-10-16T05:04:37;62.87;;;17.67;;
18308;SDS011;9280;50.276;18.650;2022-10-16T05:07:25;45.37;;;16.47;;
18308;SDS011;9280;50.276;18.650;2022-10-16T05:10:11;85.83;;;39.63;;
18308;SDS011;9280;50.276;18.650;2022-10-16T05:12:57;74.10;;;43.30;;
18308;SDS011;9280;50.276;18.650;2022-10-16T05:15:46;52.33;;;19.00;;
18308;SDS011;9280;50.276;18.650;2022-10-16T05:18:33;61.80;;;18.43;;
18308;SDS011;9280;50.276;18.650;2022-10-16T05:21:19;61.37;;;21.87;;
18308;SDS011;9280;50.276;18.650;2022-10-16T05:24:06;40.40;;;16.43;;
18308;SDS011;9280;50.276;18.650;2022-10-16T05:26:53;52.93;;;18.40;;
18308;SDS011;9280;50.276;18.650;2022-10-16T05:29:39;64.27;;;19.97;;
18308;SDS011;9280;50.276;18.650;2022-10-16T05:32:25;80.27;;;41.77;;
18308;SDS011;9280;50.276;18.650;2022-10-16T05:35:11;59.93;;;19.90;;
18308;SDS011;9280;50.276;18.650;2022-10-16T05:37:57;58.73;;;19.97;;
18308;SDS011;9280;50.276;18.650;2022-10-16T05:40:50;51.70;;;17.90;;
18308;SDS011;9280;50.276;18.650;2022-10-16T05:43:36;63.57;;;20.00;;
18308;SDS011;9280;50.276;18.650;2022-10-16T05:46:22;53.53;;;16.63;;
18308;SDS011;9280;50.276;18.650;2022-10-16T05:49:08;67.13;;;20.43;;
18308;SDS011;9280;50.276;18.650;2022-10-16T05:51:54;62.90;;;19.40;;
18308;SDS011;9280;50.276;18.650;2022-10-16T05:54:40;51.43;;;18.87;;
18308;SDS011;9280;50.276;18.650;2022-10-16T05:57:28;97.23;;;77.80;;
18308;SDS011;9280;50.276;18.650;2022-10-16T06:00:14;86.00;;;47.37;;
18308;SDS011;9280;50.276;18.650;2022-10-16T06:03:00;59.07;;;19.63;;
18308;SDS011;9280;50.276;18.650;2022-10-16T06:05:46;49.70;;;17.60;;
18308;SDS011;9280;50.276;18.650;2022-10-16T06:08:32;47.33;;;18.23;;
18308;SDS011;9280;50.276;18.650;2022-10-16T06:11:19;62.67;;;20.03;;
18308;SDS011;9280;50.276;18.650;2022-10-16T06:14:08;236.33;;;179.97;;
18308;SDS011;9280;50.276;18.650;2022-10-16T06:16:54;163.83;;;134.07;;
18308;SDS011;9280;50.276;18.650;2022-10-16T06:19:42;277.50;;;195.93;;
18308;SDS011;9280;50.276;18.650;2022-10-16T06:22:28;268.70;;;198.70;;
18308;SDS011;9280;50.276;18.650;2022-10-16T06:25:14;424.80;;;258.50;;
18308;SDS011;9280;50.276;18.650;2022-10-16T06:28:00;50.20;;;19.13;;
18308;SDS011;9280;50.276;18.650;2022-10-16T06:30:48;51.50;;;18.47;;
18308;SDS011;9280;50.276;18.650;2022-10-16T06:33:34;66.07;;;21.53;;
18308;SDS011;9280;50.276;18.650;2022-10-16T06:36:21;53.87;;;20.23;;
18308;SDS011;9280;50.276;18.650;2022-10-16T06:39:07;64.87;;;19.60;;
18308;SDS011;9280;50.276;18.650;2022-10-16T06:41:53;55.37;;;18.97;;
18308;SDS011;9280;50.276;18.650;2022-10-16T06:44:40;40.03;;;14.73;;
18308;SDS011;9280;50.276;18.650;2022-10-16T06:47:27;55.70;;;19.17;;
18308;SDS011;9280;50.276;18.650;2022-10-16T06:50:13;68.27;;;21.23;;
18308;SDS011;9280;50.276;18.650;2022-10-16T06:53:01;152.70;;;134.20;;
18308;SDS011;9280;50.276;18.650;2022-10-16T06:55:47;55.40;;;18.53;;
18308;SDS011;9280;50.276;18.650;2022-10-16T06:58:34;94.97;;;38.20;;
18308;SDS011;9280;50.276;18.650;2022-10-16T07:01:22;46.00;;;16.33;;
18308;SDS011;9280;50.276;18.650;2022-10-16T07:04:11;62.70;;;18.60;;
18308;SDS011;9280;50.276;18.650;2022-10-16T07:06:56;45.83;;;16.40;;
18308;SDS011;9280;50.276;18.650;2022-10-16T07:09:45;96.13;;;67.77;;
18308;SDS011;9280;50.276;18.650;2022-10-16T07:12:34;50.07;;;17.13;;
18308;SDS011;9280;50.276;18.650;2022-10-16T07:15:20;51.50;;;15.40;;
18308;SDS011;9280;50.276;18.650;2022-10-16T07:18:06;49.27;;;16.10;;
18308;SDS011;9280;50.276;18.650;2022-10-16T07:21:02;65.47;;;25.53;;
18308;SDS011;9280;50.276;18.650;2022-10-16T07:23:49;45.27;;;15.47;;
18308;SDS011;9280;50.276;18.650;2022-10-16T07:26:36;51.33;;;19.03;;
18308;SDS011;9280;50.276;18.650;2022-10-16T07:29:22;48.30;;;15.80;;
18308;SDS011;9280;50.276;18.650;2022-10-16T07:32:08;52.13;;;17.37;;
18308;SDS011;9280;50.276;18.650;2022-10-16T07:34:54;38.83;;;13.37;;
18308;SDS011;9280;50.276;18.650;2022-10-16T07:37:45;62.60;;;19.17;;
18308;SDS011;9280;50.276;18.650;2022-10-16T07:40:31;51.43;;;15.97;;
18308;SDS011;9280;50.276;18.650;2022-10-16T07:43:17;50.23;;;15.93;;
18308;SDS011;9280;50.276;18.650;2022-10-16T07:46:03;45.33;;;13.17;;
18308;SDS011;9280;50.276;18.650;2022-10-16T07:48:49;53.90;;;15.87;;
18308;SDS011;9280;50.276;18.650;2022-10-16T07:51:36;63.83;;;18.23;;
18308;SDS011;9280;50.276;18.650;2022-10-16T07:54:24;38.23;;;14.30;;
18308;SDS011;9280;50.276;18.650;2022-10-16T07:57:10;49.27;;;16.30;;
18308;SDS011;9280;50.276;18.650;2022-10-16T08:00:02;60.93;;;19.23;;
18308;SDS011;9280;50.276;18.650;2022-10-16T08:02:56;47.03;;;15.27;;
18308;SDS011;9280;50.276;18.650;2022-10-16T08:05:43;24.03;;;12.70;;
18308;SDS011;9280;50.276;18.650;2022-10-16T08:08:32;54.17;;;15.97;;
18308;SDS011;9280;50.276;18.650;2022-10-16T08:11:20;34.93;;;14.53;;
18308;SDS011;9280;50.276;18.650;2022-10-16T08:14:11;36.07;;;14.13;;
18308;SDS011;9280;50.276;18.650;2022-10-16T08:16:57;56.43;;;20.23;;
18308;SDS011;9280;50.276;18.650;2022-10-16T08:19:46;52.53;;;17.10;;
18308;SDS011;9280;50.276;18.650;2022-10-16T08:22:32;37.83;;;15.53;;
18308;SDS011;9280;50.276;18.650;2022-10-16T08:25:18;49.17;;;15.80;;
18308;SDS011;9280;50.276;18.650;2022-10-16T08:28:06;58.53;;;17.97;;
18308;SDS011;9280;50.276;18.650;2022-10-16T08:30:53;55.27;;;17.33;;
18308;SDS011;9280;50.276;18.650;2022-10-16T08:33:41;39.47;;;15.23;;
18308;SDS011;9280;50.276;18.650;2022-10-16T08:36:29;35.40;;;15.47;;
18308;SDS011;9280;50.276;18.650;2022-10-16T08:39:15;29.17;;;14.10;;
18308;SDS011;9280;50.276;18.650;2022-10-16T08:42:04;54.37;;;16.47;;
18308;SDS011;9280;50.276;18.650;2022-10-16T08:48:27;32.97;;;15.27;;
18308;SDS011;9280;50.276;18.650;2022-10-16T08:51:19;25.53;;;12.93;;
18308;SDS011;9280;50.276;18.650;2022-10-16T08:54:12;23.03;;;13.07;;
18308;SDS011;9280;50.276;18.650;2022-10-16T08:57:09;21.37;;;12.20;;
18308;SDS011;9280;50.276;18.650;2022-10-16T08:59:59;27.67;;;12.87;;
18308;SDS011;9280;50.276;18.650;2022-10-16T09:02:58;27.90;;;12.47;;
18308;SDS011;9280;50.276;18.650;2022-10-16T09:05:54;36.20;;;13.77;;
18308;SDS011;9280;50.276;18.650;2022-10-16T09:08:56;36.30;;;13.83;;
18308;SDS011;9280;50.276;18.650;2022-10-16T09:11:52;25.17;;;11.17;;
18308;SDS011;9280;50.276;18.650;2022-10-16T09:14:47;27.00;;;11.43;;
18308;SDS011;9280;50.276;18.650;2022-10-16T09:17:46;26.70;;;12.30;;
18308;SDS011;9280;50.276;18.650;2022-10-16T09:20:44;30.27;;;12.77;;
18308;SDS011;9280;50.276;18.650;2022-10-16T09:23:35;33.80;;;13.33;;
18308;SDS011;9280;50.276;18.650;2022-10-16T09:26:22;17.43;;;9.63;;
18308;SDS011;9280;50.276;18.650;2022-10-16T09:29:11;22.07;;;10.17;;
18308;SDS011;9280;50.276;18.650;2022-10-16T09:31:58;32.33;;;12.77;;
18308;SDS011;9280;50.276;18.650;2022-10-16T09:34:55;25.07;;;11.07;;
18308;SDS011;9280;50.276;18.650;2022-10-16T09:37:44;32.63;;;13.30;;
18308;SDS011;9280;50.276;18.650;2022-10-16T09:40:33;33.10;;;12.30;;
18308;SDS011;9280;50.276;18.650;2022-10-16T09:43:21;26.57;;;12.53;;
18308;SDS011;9280;50.276;18.650;2022-10-16T09:46:20;26.07;;;10.10;;
18308;SDS011;9280;50.276;18.650;2022-10-16T09:49:18;23.73;;;11.00;;
18308;SDS011;9280;50.276;18.650;2022-10-16T09:52:11;33.03;;;12.33;;
18308;SDS011;9280;50.276;18.650;2022-10-16T09:55:00;28.97;;;11.30;;
18308;SDS011;9280;50.276;18.650;2022-10-16T09:57:57;24.87;;;10.43;;
18308;SDS011;9280;50.276;18.650;2022-10-16T10:00:48;24.63;;;10.67;;
18308;SDS011;9280;50.276;18.650;2022-10-16T10:03:37;33.90;;;10.87;;
18308;SDS011;9280;50.276;18.650;2022-10-16T10:06:26;26.57;;;10.27;;
18308;SDS011;9280;50.276;18.650;2022-10-16T10:09:17;23.47;;;10.27;;
18308;SDS011;9280;50.276;18.650;2022-10-16T10:12:16;26.10;;;10.97;;
18308;SDS011;9280;50.276;18.650;2022-10-16T10:15:05;23.20;;;10.03;;
18308;SDS011;9280;50.276;18.650;2022-10-16T10:17:53;22.73;;;10.20;;
18308;SDS011;9280;50.276;18.650;2022-10-16T10:20:40;24.80;;;10.33;;
18308;SDS011;9280;50.276;18.650;2022-10-16T10:23:27;27.33;;;10.60;;
18308;SDS011;9280;50.276;18.650;2022-10-16T10:26:18;33.30;;;12.43;;
18308;SDS011;9280;50.276;18.650;2022-10-16T10:29:12;26.00;;;11.03;;
18308;SDS011;9280;50.276;18.650;2022-10-16T10:32:06;28.40;;;11.43;;
18308;SDS011;9280;50.276;18.650;2022-10-16T10:35:03;29.10;;;11.30;;
18308;SDS011;9280;50.276;18.650;2022-10-16T10:38:09;30.10;;;11.70;;
18308;SDS011;9280;50.276;18.650;2022-10-16T10:41:15;34.97;;;12.17;;
18308;SDS011;9280;50.276;18.650;2022-10-16T10:44:21;29.13;;;12.13;;
18308;SDS011;9280;50.276;18.650;2022-10-16T10:47:20;25.13;;;10.07;;
18308;SDS011;9280;50.276;18.650;2022-10-16T10:50:19;22.03;;;9.70;;
18308;SDS011;9280;50.276;18.650;2022-10-16T10:53:11;27.27;;;11.03;;
18308;SDS011;9280;50.276;18.650;2022-10-16T10:56:10;25.00;;;9.83;;
18308;SDS011;9280;50.276;18.650;2022-10-16T10:59:08;26.37;;;11.67;;
18308;SDS011;9280;50.276;18.650;2022-10-16T11:02:18;21.27;;;10.40;;
18308;SDS011;9280;50.276;18.650;2022-10-16T11:05:28;24.23;;;11.83;;
18308;SDS011;9280;50.276;18.650;2022-10-16T11:08:26;20.40;;;10.40;;
18308;SDS011;9280;50.276;18.650;2022-10-16T11:11:20;25.60;;;10.97;;
18308;SDS011;9280;50.276;18.650;2022-10-16T11:14:13;30.63;;;12.47;;
18308;SDS011;9280;50.276;18.650;2022-10-16T11:17:05;26.83;;;11.87;;
18308;SDS011;9280;50.276;18.650;2022-10-16T11:19:58;26.47;;;11.53;;
18308;SDS011;9280;50.276;18.650;2022-10-16T11:22:51;26.47;;;12.37;;
18308;SDS011;9280;50.276;18.650;2022-10-16T11:25:40;32.63;;;12.10;;
18308;SDS011;9280;50.276;18.650;2022-10-16T11:28:29;27.63;;;11.93;;
18308;SDS011;9280;50.276;18.650;2022-10-16T11:31:22;25.43;;;11.37;;
18308;SDS011;9280;50.276;18.650;2022-10-16T11:34:17;24.07;;;11.10;;
18308;SDS011;9280;50.276;18.650;2022-10-16T11:37:11;22.83;;;11.63;;
18308;SDS011;9280;50.276;18.650;2022-10-16T11:40:04;24.43;;;10.87;;
18308;SDS011;9280;50.276;18.650;2022-10-16T11:43:02;24.47;;;10.70;;
18308;SDS011;9280;50.276;18.650;2022-10-16T11:45:56;24.30;;;10.90;;
18308;SDS011;9280;50.276;18.650;2022-10-16T11:48:45;32.77;;;11.20;;
18308;SDS011;9280;50.276;18.650;2022-10-16T11:51:36;30.43;;;12.57;;
18308;SDS011;9280;50.276;18.650;2022-10-16T11:54:28;30.23;;;12.13;;
18308;SDS011;9280;50.276;18.650;2022-10-16T11:57:21;25.73;;;11.03;;
18308;SDS011;9280;50.276;18.650;2022-10-16T12:00:09;27.67;;;12.23;;
18308;SDS011;9280;50.276;18.650;2022-10-16T12:03:08;32.03;;;11.37;;
18308;SDS011;9280;50.276;18.650;2022-10-16T12:06:10;23.83;;;10.60;;
18308;SDS011;9280;50.276;18.650;2022-10-16T12:09:03;45.77;;;17.90;;
18308;SDS011;9280;50.276;18.650;2022-10-16T12:11:51;39.43;;;12.47;;
18308;SDS011;9280;50.276;18.650;2022-10-16T12:14:37;20.50;;;10.07;;
18308;SDS011;9280;50.276;18.650;2022-10-16T12:17:26;17.07;;;9.27;;
18308;SDS011;9280;50.276;18.650;2022-10-16T12:20:23;22.03;;;9.67;;
18308;SDS011;9280;50.276;18.650;2022-10-16T12:23:16;17.83;;;10.03;;
18308;SDS011;9280;50.276;18.650;2022-10-16T12:26:07;23.83;;;11.00;;
18308;SDS011;9280;50.276;18.650;2022-10-16T12:29:12;20.90;;;10.07;;
18308;SDS011;9280;50.276;18.650;2022-10-16T12:32:04;34.27;;;11.20;;
18308;SDS011;9280;50.276;18.650;2022-10-16T12:34:51;15.70;;;8.10;;
18308;SDS011;9280;50.276;18.650;2022-10-16T12:37:37;23.93;;;10.33;;
18308;SDS011;9280;50.276;18.650;2022-10-16T12:40:25;32.37;;;11.27;;
18308;SDS011;9280;50.276;18.650;2022-10-16T12:43:27;38.33;;;11.67;;
18308;SDS011;9280;50.276;18.650;2022-10-16T12:46:24;34.80;;;11.83;;
18308;SDS011;9280;50.276;18.650;2022-10-16T12:49:29;30.23;;;10.80;;
18308;SDS011;9280;50.276;18.650;2022-10-16T12:52:24;16.53;;;8.97;;
18308;SDS011;9280;50.276;18.650;2022-10-16T12:55:15;33.83;;;11.43;;
18308;SDS011;9280;50.276;18.650;2022-10-16T12:58:06;18.50;;;9.53;;
18308;SDS011;9280;50.276;18.650;2022-10-16T13:01:03;22.27;;;10.40;;
18308;SDS011;9280;50.276;18.650;2022-10-16T13:04:06;29.27;;;12.33;;
18308;SDS011;9280;50.276;18.650;2022-10-16T13:07:19;29.60;;;10.90;;
18308;SDS011;9280;50.276;18.650;2022-10-16T13:10:25;25.30;;;10.27;;
18308;SDS011;9280;50.276;18.650;2022-10-16T13:13:27;26.90;;;10.83;;
18308;SDS011;9280;50.276;18.650;2022-10-16T13:16:25;19.13;;;9.20;;
18308;SDS011;9280;50.276;18.650;2022-10-16T13:19:23;27.80;;;12.37;;
18308;SDS011;9280;50.276;18.650;2022-10-16T13:22:16;30.47;;;12.20;;
18308;SDS011;9280;50.276;18.650;2022-10-16T13:25:15;32.17;;;11.03;;
18308;SDS011;9280;50.276;18.650;2022-10-16T13:28:10;30.20;;;12.20;;
18308;SDS011;9280;50.276;18.650;2022-10-16T13:30:58;31.20;;;11.00;;
18308;SDS011;9280;50.276;18.650;2022-10-16T13:33:46;30.43;;;11.00;;
18308;SDS011;9280;50.276;18.650;2022-10-16T13:36:44;35.87;;;13.00;;
18308;SDS011;9280;50.276;18.650;2022-10-16T13:39:31;38.20;;;13.43;;
18308;SDS011;9280;50.276;18.650;2022-10-16T13:42:20;34.13;;;11.80;;
18308;SDS011;9280;50.276;18.650;2022-10-16T13:45:21;32.23;;;11.70;;
18308;SDS011;9280;50.276;18.650;2022-10-16T13:48:10;32.23;;;12.70;;
18308;SDS011;9280;50.276;18.650;2022-10-16T13:50:58;25.50;;;10.97;;
18308;SDS011;9280;50.276;18.650;2022-10-16T13:53:47;27.97;;;11.47;;
18308;SDS011;9280;50.276;18.650;2022-10-16T13:56:33;28.00;;;11.67;;
18308;SDS011;9280;50.276;18.650;2022-10-16T13:59:22;22.87;;;9.90;;
18308;SDS011;9280;50.276;18.650;2022-10-16T14:02:15;25.43;;;10.80;;
18308;SDS011;9280;50.276;18.650;2022-10-16T14:05:08;20.27;;;9.80;;
18308;SDS011;9280;50.276;18.650;2022-10-16T14:07:55;20.93;;;9.37;;
18308;SDS011;9280;50.276;18.650;2022-10-16T14:10:46;24.87;;;10.97;;
18308;SDS011;9280;50.276;18.650;2022-10-16T14:13:36;29.00;;;11.73;;
18308;SDS011;9280;50.276;18.650;2022-10-16T14:16:25;27.40;;;9.90;;
18308;SDS011;9280;50.276;18.650;2022-10-16T14:19:15;30.37;;;11.33;;
18308;SDS011;9280;50.276;18.650;2022-10-16T14:22:11;27.23;;;10.37;;
18308;SDS011;9280;50.276;18.650;2022-10-16T14:25:23;31.07;;;11.20;;
18308;SDS011;9280;50.276;18.650;2022-10-16T14:28:16;36.07;;;13.13;;
18308;SDS011;9280;50.276;18.650;2022-10-16T14:31:16;37.13;;;11.30;;
18308;SDS011;9280;50.276;18.650;2022-10-16T14:34:24;32.20;;;11.63;;
18308;SDS011;9280;50.276;18.650;2022-10-16T14:37:15;32.27;;;11.83;;
18308;SDS011;9280;50.276;18.650;2022-10-16T14:40:11;37.83;;;12.33;;
18308;SDS011;9280;50.276;18.650;2022-10-16T14:43:00;30.93;;;12.03;;
18308;SDS011;9280;50.276;18.650;2022-10-16T14:45:51;29.97;;;11.73;;
18308;SDS011;9280;50.276;18.650;2022-10-16T14:48:40;37.67;;;13.90;;
18308;SDS011;9280;50.276;18.650;2022-10-16T14:51:26;34.07;;;12.07;;
18308;SDS011;9280;50.276;18.650;2022-10-16T14:54:13;36.43;;;12.77;;
18308;SDS011;9280;50.276;18.650;2022-10-16T14:57:00;22.70;;;10.70;;
18308;SDS011;9280;50.276;18.650;2022-10-16T14:59:46;28.90;;;12.33;;
18308;SDS011;9280;50.276;18.650;2022-10-16T15:02:36;27.23;;;12.70;;
18308;SDS011;9280;50.276;18.650;2022-10-16T15:05:23;34.90;;;11.23;;
18308;SDS011;9280;50.276;18.650;2022-10-16T15:08:11;27.53;;;11.80;;
18308;SDS011;9280;50.276;18.650;2022-10-16T15:10:57;22.97;;;11.90;;
18308;SDS011;9280;50.276;18.650;2022-10-16T15:13:43;24.57;;;11.30;;
18308;SDS011;9280;50.276;18.650;2022-10-16T15:16:29;34.57;;;12.97;;
18308;SDS011;9280;50.276;18.650;2022-10-16T15:19:17;40.73;;;14.33;;
18308;SDS011;9280;50.276;18.650;2022-10-16T15:22:04;33.27;;;12.40;;
18308;SDS011;9280;50.276;18.650;2022-10-16T15:24:50;38.83;;;13.30;;
18308;SDS011;9280;50.276;18.650;2022-10-16T15:27:36;28.13;;;12.60;;
18308;SDS011;9280;50.276;18.650;2022-10-16T15:30:23;38.80;;;13.20;;
18308;SDS011;9280;50.276;18.650;2022-10-16T15:33:12;42.83;;;13.73;;
18308;SDS011;9280;50.276;18.650;2022-10-16T15:36:01;40.50;;;13.90;;
18308;SDS011;9280;50.276;18.650;2022-10-16T15:38:47;28.57;;;12.63;;
18308;SDS011;9280;50.276;18.650;2022-10-16T15:41:33;40.43;;;14.93;;
18308;SDS011;9280;50.276;18.650;2022-10-16T15:44:19;38.47;;;14.10;;
18308;SDS011;9280;50.276;18.650;2022-10-16T15:47:07;40.37;;;13.83;;
18308;SDS011;9280;50.276;18.650;2022-10-16T15:49:54;30.07;;;12.80;;
18308;SDS011;9280;50.276;18.650;2022-10-16T15:52:41;42.57;;;14.27;;
18308;SDS011;9280;50.276;18.650;2022-10-16T15:55:28;42.20;;;15.27;;
18308;SDS011;9280;50.276;18.650;2022-10-16T15:58:14;41.60;;;14.37;;
18308;SDS011;9280;50.276;18.650;2022-10-16T16:01:01;42.80;;;14.20;;
18308;SDS011;9280;50.276;18.650;2022-10-16T16:03:47;41.07;;;15.03;;
18308;SDS011;9280;50.276;18.650;2022-10-16T16:06:38;40.70;;;14.33;;
18308;SDS011;9280;50.276;18.650;2022-10-16T16:09:30;53.33;;;16.43;;
18308;SDS011;9280;50.276;18.650;2022-10-16T16:12:15;46.33;;;16.77;;
18308;SDS011;9280;50.276;18.650;2022-10-16T16:15:02;30.37;;;13.40;;
18308;SDS011;9280;50.276;18.650;2022-10-16T16:17:48;105.77;;;95.10;;
18308;SDS011;9280;50.276;18.650;2022-10-16T16:20:34;60.20;;;18.13;;
18308;SDS011;9280;50.276;18.650;2022-10-16T16:23:21;44.13;;;14.70;;
18308;SDS011;9280;50.276;18.650;2022-10-16T16:26:09;38.83;;;15.53;;
18308;SDS011;9280;50.276;18.650;2022-10-16T16:28:57;43.87;;;15.83;;
18308;SDS011;9280;50.276;18.650;2022-10-16T16:31:43;41.20;;;15.20;;
18308;SDS011;9280;50.276;18.650;2022-10-16T16:34:30;36.70;;;14.47;;
18308;SDS011;9280;50.276;18.650;2022-10-16T16:37:16;39.60;;;15.27;;